sensor_id;sensor_type;location;lat;lon;timestamp;temperature;humidity
1155;DHT22;566;48.414;9.118;2022-10-23T00:01:31;13.70;98.00
1155;DHT22;566;48.414;9.118;2022-10-23T00:04:04;13.50;98.00
1155;DHT22;566;48.414;9.118;2022-10-23T00:06:32;13.50;98.00
1155;DHT22;566;48.414;9.118;2022-10-23T00:08:58;13.60;98.00
1155;DHT22;566;48.414;9.118;2022-10-23T00:11:26;13.50;98.00
1155;DHT22;566;48.414;9.118;2022-10-23T00:13:54;13.50;98.00
1155;DHT22;566;48.414;9.118;2022-10-23T00:16:20;13.50;98.00
1155;DHT22;566;48.414;9.118;2022-10-23T00:18:46;13.50;98.00
1155;DHT22;566;48.414;9.118;2022-10-23T00:21:14;13.50;98.00
1155;DHT22;566;48.414;9.118;2022-10-23T00:23:40;13.50;98.00
1155;DHT22;566;48.414;9.118;2022-10-23T00:26:06;13.60;98.00
1155;DHT22;566;48.414;9.118;2022-10-23T00:28:33;13.70;98.00
1155;DHT22;566;48.414;9.118;2022-10-23T00:31:03;13.70;98.00
1155;DHT22;566;48.414;9.118;2022-10-23T00:33:29;13.70;98.00
1155;DHT22;566;48.414;9.118;2022-10-23T00:35:54;13.70;98.00
1155;DHT22;566;48.414;9.118;2022-10-23T00:38:20;13.60;98.00
1155;DHT22;566;48.414;9.118;2022-10-23T00:40:45;13.60;98.00
1155;DHT22;566;48.414;9.118;2022-10-23T00:43:26;13.60;98.00
1155;DHT22;566;48.414;9.118;2022-10-23T00:45:53;13.60;98.00
1155;DHT22;566;48.414;9.118;2022-10-23T00:48:19;13.70;98.00
1155;DHT22;566;48.414;9.118;2022-10-23T00:50:47;13.80;98.00
1155;DHT22;566;48.414;9.118;2022-10-23T00:53:14;13.90;98.00
1155;DHT22;566;48.414;9.118;2022-10-23T00:55:44;14.00;98.00
1155;DHT22;566;48.414;9.118;2022-10-23T00:58:12;14.00;97.80
1155;DHT22;566;48.414;9.118;2022-10-23T01:00:43;14.00;97.70
1155;DHT22;566;48.414;9.118;2022-10-23T01:03:09;14.10;97.40
1155;DHT22;566;48.414;9.118;2022-10-23T01:05:53;14.00;97.60
1155;DHT22;566;48.414;9.118;2022-10-23T01:08:31;13.90;98.00
1155;DHT22;566;48.414;9.118;2022-10-23T01:11:14;13.90;98.00
1155;DHT22;566;48.414;9.118;2022-10-23T01:16:45;13.90;98.00
1155;DHT22;566;48.414;9.118;2022-10-23T01:27:32;13.60;98.00
1155;DHT22;566;48.414;9.118;2022-10-23T01:32:33;13.70;98.00
1155;DHT22;566;48.414;9.118;2022-10-23T01:35:15;13.80;98.00
1155;DHT22;566;48.414;9.118;2022-10-23T01:37:47;13.70;98.00
1155;DHT22;566;48.414;9.118;2022-10-23T01:40:23;13.70;98.00
1155;DHT22;566;48.414;9.118;2022-10-23T01:42:55;13.80;98.00
1155;DHT22;566;48.414;9.118;2022-10-23T01:45:34;14.00;97.60
1155;DHT22;566;48.414;9.118;2022-10-23T01:48:02;14.00;97.50
1155;DHT22;566;48.414;9.118;2022-10-23T01:50:29;14.00;97.50
1155;DHT22;566;48.414;9.118;2022-10-23T01:52:55;13.90;97.60
1155;DHT22;566;48.414;9.118;2022-10-23T01:55:22;13.90;97.50
1155;DHT22;566;48.414;9.118;2022-10-23T01:57:49;14.00;97.00
1155;DHT22;566;48.414;9.118;2022-10-23T02:00:17;14.00;96.70
1155;DHT22;566;48.414;9.118;2022-10-23T02:02:45;14.00;96.50
1155;DHT22;566;48.414;9.118;2022-10-23T02:05:25;14.00;96.40
1155;DHT22;566;48.414;9.118;2022-10-23T02:07:52;13.90;96.90
1155;DHT22;566;48.414;9.118;2022-10-23T02:10:19;13.90;96.40
1155;DHT22;566;48.414;9.118;2022-10-23T02:12:53;14.00;96.10
1155;DHT22;566;48.414;9.118;2022-10-23T02:15:42;14.20;95.60
1155;DHT22;566;48.414;9.118;2022-10-23T02:21:18;14.30;94.90
1155;DHT22;566;48.414;9.118;2022-10-23T02:24:02;14.40;94.30
1155;DHT22;566;48.414;9.118;2022-10-23T02:29:06;14.40;93.70
1155;DHT22;566;48.414;9.118;2022-10-23T02:31:33;14.50;93.40
1155;DHT22;566;48.414;9.118;2022-10-23T02:33:59;14.60;92.90
1155;DHT22;566;48.414;9.118;2022-10-23T02:36:28;14.60;92.40
1155;DHT22;566;48.414;9.118;2022-10-23T02:38:53;14.60;92.50
1155;DHT22;566;48.414;9.118;2022-10-23T02:49:53;14.80;92.00
1155;DHT22;566;48.414;9.118;2022-10-23T02:55:49;14.70;92.20
1155;DHT22;566;48.414;9.118;2022-10-23T02:58:42;14.70;91.80
1155;DHT22;566;48.414;9.118;2022-10-23T03:01:15;14.60;92.00
1155;DHT22;566;48.414;9.118;2022-10-23T03:03:46;14.70;91.40
1155;DHT22;566;48.414;9.118;2022-10-23T03:06:13;14.90;90.80
1155;DHT22;566;48.414;9.118;2022-10-23T03:08:53;14.90;91.00
1155;DHT22;566;48.414;9.118;2022-10-23T03:11:19;14.90;90.30
1155;DHT22;566;48.414;9.118;2022-10-23T03:13:46;15.00;90.40
1155;DHT22;566;48.414;9.118;2022-10-23T03:16:12;15.10;89.20
1155;DHT22;566;48.414;9.118;2022-10-23T03:18:37;15.20;88.80
1155;DHT22;566;48.414;9.118;2022-10-23T03:21:03;15.20;89.10
1155;DHT22;566;48.414;9.118;2022-10-23T03:23:28;15.20;88.30
1155;DHT22;566;48.414;9.118;2022-10-23T03:25:54;15.30;88.30
1155;DHT22;566;48.414;9.118;2022-10-23T03:28:21;15.30;88.10
1155;DHT22;566;48.414;9.118;2022-10-23T03:30:46;15.20;88.70
1155;DHT22;566;48.414;9.118;2022-10-23T03:33:12;15.20;88.70
1155;DHT22;566;48.414;9.118;2022-10-23T03:35:38;15.10;88.40
1155;DHT22;566;48.414;9.118;2022-10-23T03:38:04;15.10;88.70
1155;DHT22;566;48.414;9.118;2022-10-23T03:40:29;15.10;88.70
1155;DHT22;566;48.414;9.118;2022-10-23T03:42:55;15.00;89.10
1155;DHT22;566;48.414;9.118;2022-10-23T03:45:20;15.00;89.40
1155;DHT22;566;48.414;9.118;2022-10-23T03:47:46;14.90;89.40
1155;DHT22;566;48.414;9.118;2022-10-23T03:50:13;14.90;89.90
1155;DHT22;566;48.414;9.118;2022-10-23T03:52:39;14.80;89.90
1155;DHT22;566;48.414;9.118;2022-10-23T03:55:05;14.80;90.20
1155;DHT22;566;48.414;9.118;2022-10-23T03:57:31;14.70;90.20
1155;DHT22;566;48.414;9.118;2022-10-23T03:59:57;14.70;90.80
1155;DHT22;566;48.414;9.118;2022-10-23T04:02:25;14.60;90.80
1155;DHT22;566;48.414;9.118;2022-10-23T04:04:51;14.70;90.60
1155;DHT22;566;48.414;9.118;2022-10-23T04:07:16;14.70;91.00
1155;DHT22;566;48.414;9.118;2022-10-23T04:09:42;14.70;90.80
1155;DHT22;566;48.414;9.118;2022-10-23T04:12:08;14.70;90.70
1155;DHT22;566;48.414;9.118;2022-10-23T04:14:34;14.90;90.00
1155;DHT22;566;48.414;9.118;2022-10-23T04:16:59;15.00;90.00
1155;DHT22;566;48.414;9.118;2022-10-23T04:19:25;14.90;89.90
1155;DHT22;566;48.414;9.118;2022-10-23T04:21:53;14.90;90.00
1155;DHT22;566;48.414;9.118;2022-10-23T04:24:18;14.90;90.20
1155;DHT22;566;48.414;9.118;2022-10-23T04:26:44;15.00;89.90
1155;DHT22;566;48.414;9.118;2022-10-23T04:29:10;14.90;90.00
1155;DHT22;566;48.414;9.118;2022-10-23T04:31:36;15.10;89.20
1155;DHT22;566;48.414;9.118;2022-10-23T04:34:01;15.10;89.50
1155;DHT22;566;48.414;9.118;2022-10-23T04:36:27;15.10;89.10
1155;DHT22;566;48.414;9.118;2022-10-23T04:38:53;15.00;89.00
1155;DHT22;566;48.414;9.118;2022-10-23T04:41:18;15.00;89.00
1155;DHT22;566;48.414;9.118;2022-10-23T04:43:44;15.00;88.70
1155;DHT22;566;48.414;9.118;2022-10-23T04:46:10;15.10;88.50
1155;DHT22;566;48.414;9.118;2022-10-23T04:48:35;15.20;88.10
1155;DHT22;566;48.414;9.118;2022-10-23T04:51:03;15.20;88.30
1155;DHT22;566;48.414;9.118;2022-10-23T04:53:29;15.10;88.60
1155;DHT22;566;48.414;9.118;2022-10-23T04:55:56;15.00;88.90
1155;DHT22;566;48.414;9.118;2022-10-23T04:58:23;15.00;88.60
1155;DHT22;566;48.414;9.118;2022-10-23T05:00:49;15.00;88.80
1155;DHT22;566;48.414;9.118;2022-10-23T05:03:16;14.90;88.50
1155;DHT22;566;48.414;9.118;2022-10-23T05:05:42;15.00;88.20
1155;DHT22;566;48.414;9.118;2022-10-23T05:08:09;15.00;88.10
1155;DHT22;566;48.414;9.118;2022-10-23T05:10:35;15.00;87.80
1155;DHT22;566;48.414;9.118;2022-10-23T05:13:01;15.00;87.60
1155;DHT22;566;48.414;9.118;2022-10-23T05:15:26;15.10;87.00
1155;DHT22;566;48.414;9.118;2022-10-23T05:17:56;15.10;87.60
1155;DHT22;566;48.414;9.118;2022-10-23T05:20:27;15.00;88.10
1155;DHT22;566;48.414;9.118;2022-10-23T05:22:55;14.90;87.80
1155;DHT22;566;48.414;9.118;2022-10-23T05:25:23;14.90;87.60
1155;DHT22;566;48.414;9.118;2022-10-23T05:27:48;14.80;88.20
1155;DHT22;566;48.414;9.118;2022-10-23T05:30:14;14.70;89.60
1155;DHT22;566;48.414;9.118;2022-10-23T05:32:40;14.50;90.20
1155;DHT22;566;48.414;9.118;2022-10-23T05:35:08;14.30;91.50
1155;DHT22;566;48.414;9.118;2022-10-23T05:37:40;14.00;92.60
1155;DHT22;566;48.414;9.118;2022-10-23T05:40:07;13.70;93.80
1155;DHT22;566;48.414;9.118;2022-10-23T05:42:33;13.60;94.10
1155;DHT22;566;48.414;9.118;2022-10-23T05:44:58;13.40;94.90
1155;DHT22;566;48.414;9.118;2022-10-23T05:47:24;13.30;95.50
1155;DHT22;566;48.414;9.118;2022-10-23T05:49:49;13.20;96.20
1155;DHT22;566;48.414;9.118;2022-10-23T05:52:15;13.00;97.00
1155;DHT22;566;48.414;9.118;2022-10-23T05:54:41;12.90;97.40
1155;DHT22;566;48.414;9.118;2022-10-23T05:57:08;12.70;97.90
1155;DHT22;566;48.414;9.118;2022-10-23T05:59:33;12.60;98.00
1155;DHT22;566;48.414;9.118;2022-10-23T06:01:59;12.40;98.00
1155;DHT22;566;48.414;9.118;2022-10-23T06:04:25;12.30;98.00
1155;DHT22;566;48.414;9.118;2022-10-23T06:06:50;12.20;98.00
1155;DHT22;566;48.414;9.118;2022-10-23T06:09:16;12.00;98.00
1155;DHT22;566;48.414;9.118;2022-10-23T06:11:42;11.90;98.00
1155;DHT22;566;48.414;9.118;2022-10-23T06:14:08;12.00;98.00
1155;DHT22;566;48.414;9.118;2022-10-23T06:16:33;12.10;98.00
1155;DHT22;566;48.414;9.118;2022-10-23T06:18:59;12.50;96.40
1155;DHT22;566;48.414;9.118;2022-10-23T06:21:25;13.10;94.20
1155;DHT22;566;48.414;9.118;2022-10-23T06:23:51;13.70;92.00
1155;DHT22;566;48.414;9.118;2022-10-23T06:26:17;14.10;89.90
1155;DHT22;566;48.414;9.118;2022-10-23T06:28:44;14.40;88.90
1155;DHT22;566;48.414;9.118;2022-10-23T06:31:11;14.60;88.10
1155;DHT22;566;48.414;9.118;2022-10-23T06:33:37;14.70;88.10
1155;DHT22;566;48.414;9.118;2022-10-23T06:36:04;14.70;87.40
1155;DHT22;566;48.414;9.118;2022-10-23T06:38:31;14.90;86.60
1155;DHT22;566;48.414;9.118;2022-10-23T06:41:02;15.10;86.30
1155;DHT22;566;48.414;9.118;2022-10-23T06:43:28;15.20;85.70
1155;DHT22;566;48.414;9.118;2022-10-23T06:45:53;15.30;85.50
1155;DHT22;566;48.414;9.118;2022-10-23T06:48:19;15.40;84.50
1155;DHT22;566;48.414;9.118;2022-10-23T06:50:45;15.50;84.80
1155;DHT22;566;48.414;9.118;2022-10-23T06:53:10;15.50;84.90
1155;DHT22;566;48.414;9.118;2022-10-23T06:55:37;15.50;84.70
1155;DHT22;566;48.414;9.118;2022-10-23T06:58:06;15.60;84.20
1155;DHT22;566;48.414;9.118;2022-10-23T07:00:36;15.70;84.40
1155;DHT22;566;48.414;9.118;2022-10-23T07:03:02;15.80;83.90
1155;DHT22;566;48.414;9.118;2022-10-23T07:05:31;15.90;83.50
1155;DHT22;566;48.414;9.118;2022-10-23T07:07:57;15.90;83.90
1155;DHT22;566;48.414;9.118;2022-10-23T07:10:23;16.00;83.10
1155;DHT22;566;48.414;9.118;2022-10-23T07:12:49;16.10;83.30
1155;DHT22;566;48.414;9.118;2022-10-23T07:15:15;16.20;82.40
1155;DHT22;566;48.414;9.118;2022-10-23T07:17:41;16.30;82.30
1155;DHT22;566;48.414;9.118;2022-10-23T07:20:06;16.40;83.30
1155;DHT22;566;48.414;9.118;2022-10-23T07:22:32;16.40;82.20
1155;DHT22;566;48.414;9.118;2022-10-23T07:24:58;16.40;82.70
1155;DHT22;566;48.414;9.118;2022-10-23T07:27:24;16.50;81.60
1155;DHT22;566;48.414;9.118;2022-10-23T07:29:53;16.50;81.60
1155;DHT22;566;48.414;9.118;2022-10-23T07:32:19;16.60;81.50
1155;DHT22;566;48.414;9.118;2022-10-23T07:34:45;16.70;80.90
1155;DHT22;566;48.414;9.118;2022-10-23T07:37:10;16.70;81.50
1155;DHT22;566;48.414;9.118;2022-10-23T07:39:36;16.70;81.10
1155;DHT22;566;48.414;9.118;2022-10-23T07:42:02;16.70;81.00
1155;DHT22;566;48.414;9.118;2022-10-23T07:44:27;16.80;80.60
1155;DHT22;566;48.414;9.118;2022-10-23T07:46:53;16.90;80.80
1155;DHT22;566;48.414;9.118;2022-10-23T07:49:19;17.00;80.30
1155;DHT22;566;48.414;9.118;2022-10-23T07:51:44;17.20;79.50
1155;DHT22;566;48.414;9.118;2022-10-23T07:54:11;17.20;80.20
1155;DHT22;566;48.414;9.118;2022-10-23T07:56:37;17.30;79.80
1155;DHT22;566;48.414;9.118;2022-10-23T07:59:03;17.70;79.60
1155;DHT22;566;48.414;9.118;2022-10-23T08:01:32;18.20;79.10
1155;DHT22;566;48.414;9.118;2022-10-23T08:03:59;18.90;77.30
1155;DHT22;566;48.414;9.118;2022-10-23T08:06:24;19.80;75.30
1155;DHT22;566;48.414;9.118;2022-10-23T08:08:50;20.80;73.10
1155;DHT22;566;48.414;9.118;2022-10-23T08:11:18;21.60;71.40
1155;DHT22;566;48.414;9.118;2022-10-23T08:13:49;22.00;70.10
1155;DHT22;566;48.414;9.118;2022-10-23T08:16:15;21.60;69.00
1155;DHT22;566;48.414;9.118;2022-10-23T08:18:44;21.00;70.60
1155;DHT22;566;48.414;9.118;2022-10-23T08:21:10;20.70;72.00
1155;DHT22;566;48.414;9.118;2022-10-23T08:23:36;20.40;71.80
1155;DHT22;566;48.414;9.118;2022-10-23T08:26:04;20.20;72.60
1155;DHT22;566;48.414;9.118;2022-10-23T08:28:31;20.20;71.40
1155;DHT22;566;48.414;9.118;2022-10-23T08:30:57;20.20;72.10
1155;DHT22;566;48.414;9.118;2022-10-23T08:33:24;20.30;71.90
1155;DHT22;566;48.414;9.118;2022-10-23T08:35:50;20.90;71.80
1155;DHT22;566;48.414;9.118;2022-10-23T08:38:16;21.80;70.10
1155;DHT22;566;48.414;9.118;2022-10-23T08:40:47;22.30;68.40
1155;DHT22;566;48.414;9.118;2022-10-23T08:43:20;22.20;68.40
1155;DHT22;566;48.414;9.118;2022-10-23T08:45:54;22.10;69.00
1155;DHT22;566;48.414;9.118;2022-10-23T08:48:34;22.50;69.10
1155;DHT22;566;48.414;9.118;2022-10-23T08:51:47;23.20;67.00
1155;DHT22;566;48.414;9.118;2022-10-23T08:54:28;23.50;66.70
1155;DHT22;566;48.414;9.118;2022-10-23T08:56:57;23.80;66.70
1155;DHT22;566;48.414;9.118;2022-10-23T08:59:43;23.80;65.50
1155;DHT22;566;48.414;9.118;2022-10-23T09:02:31;23.80;65.70
1155;DHT22;566;48.414;9.118;2022-10-23T09:04:59;24.10;66.00
1155;DHT22;566;48.414;9.118;2022-10-23T09:16:34;25.50;64.20
1155;DHT22;566;48.414;9.118;2022-10-23T09:19:15;25.60;62.50
1155;DHT22;566;48.414;9.118;2022-10-23T09:21:41;25.50;63.70
1155;DHT22;566;48.414;9.118;2022-10-23T09:24:18;25.90;62.50
1155;DHT22;566;48.414;9.118;2022-10-23T09:26:45;26.30;61.00
1155;DHT22;566;48.414;9.118;2022-10-23T09:31:55;26.70;60.90
1155;DHT22;566;48.414;9.118;2022-10-23T09:34:26;27.10;63.70
1155;DHT22;566;48.414;9.118;2022-10-23T09:36:58;26.40;66.40
1155;DHT22;566;48.414;9.118;2022-10-23T09:39:35;25.70;68.00
1155;DHT22;566;48.414;9.118;2022-10-23T09:42:23;26.20;63.40
1155;DHT22;566;48.414;9.118;2022-10-23T09:44:51;26.70;61.80
1155;DHT22;566;48.414;9.118;2022-10-23T09:47:19;26.50;63.30
1155;DHT22;566;48.414;9.118;2022-10-23T09:49:50;26.10;63.30
1155;DHT22;566;48.414;9.118;2022-10-23T09:54:48;25.70;64.00
1155;DHT22;566;48.414;9.118;2022-10-23T09:57:29;25.50;64.10
1155;DHT22;566;48.414;9.118;2022-10-23T10:00:17;25.40;64.80
1155;DHT22;566;48.414;9.118;2022-10-23T10:05:24;25.10;63.80
1155;DHT22;566;48.414;9.118;2022-10-23T10:17:21;24.20;63.80
1155;DHT22;566;48.414;9.118;2022-10-23T10:30:23;24.60;64.20
1155;DHT22;566;48.414;9.118;2022-10-23T10:33:18;24.30;66.90
1155;DHT22;566;48.414;9.118;2022-10-23T10:36:13;24.20;66.80
1155;DHT22;566;48.414;9.118;2022-10-23T10:38:50;24.10;67.30
1155;DHT22;566;48.414;9.118;2022-10-23T10:47:32;23.80;70.30
1155;DHT22;566;48.414;9.118;2022-10-23T10:50:18;23.80;66.30
1155;DHT22;566;48.414;9.118;2022-10-23T10:52:56;24.20;68.80
1155;DHT22;566;48.414;9.118;2022-10-23T11:00:30;24.40;66.80
1155;DHT22;566;48.414;9.118;2022-10-23T11:05:49;23.90;69.10
1155;DHT22;566;48.414;9.118;2022-10-23T11:08:18;24.00;69.00
1155;DHT22;566;48.414;9.118;2022-10-23T11:10:57;23.90;68.70
1155;DHT22;566;48.414;9.118;2022-10-23T11:13:34;24.00;66.90
1155;DHT22;566;48.414;9.118;2022-10-23T11:16:08;23.90;67.90
1155;DHT22;566;48.414;9.118;2022-10-23T11:18:36;24.10;66.00
1155;DHT22;566;48.414;9.118;2022-10-23T11:21:29;24.10;66.00
1155;DHT22;566;48.414;9.118;2022-10-23T11:24:16;24.00;65.90
1155;DHT22;566;48.414;9.118;2022-10-23T11:37:32;24.50;65.40
1155;DHT22;566;48.414;9.118;2022-10-23T11:42:45;24.90;65.10
1155;DHT22;566;48.414;9.118;2022-10-23T11:45:34;25.30;65.00
1155;DHT22;566;48.414;9.118;2022-10-23T11:56:03;26.00;62.80
1155;DHT22;566;48.414;9.118;2022-10-23T11:58:47;26.00;63.10
1155;DHT22;566;48.414;9.118;2022-10-23T12:01:39;25.90;65.50
1155;DHT22;566;48.414;9.118;2022-10-23T12:04:19;26.30;64.00
1155;DHT22;566;48.414;9.118;2022-10-23T12:06:57;26.50;64.10
1155;DHT22;566;48.414;9.118;2022-10-23T12:09:43;26.80;62.50
1155;DHT22;566;48.414;9.118;2022-10-23T12:14:50;26.90;62.30
1155;DHT22;566;48.414;9.118;2022-10-23T12:20:00;27.60;60.80
1155;DHT22;566;48.414;9.118;2022-10-23T12:22:37;27.50;59.70
1155;DHT22;566;48.414;9.118;2022-10-23T12:25:15;27.50;58.50
1155;DHT22;566;48.414;9.118;2022-10-23T12:28:05;27.20;58.30
1155;DHT22;566;48.414;9.118;2022-10-23T12:30:57;27.40;60.80
1155;DHT22;566;48.414;9.118;2022-10-23T12:38:48;27.80;60.20
1155;DHT22;566;48.414;9.118;2022-10-23T12:41:23;27.90;61.50
1155;DHT22;566;48.414;9.118;2022-10-23T12:43:58;27.20;65.90
1155;DHT22;566;48.414;9.118;2022-10-23T12:46:31;26.20;68.70
1155;DHT22;566;48.414;9.118;2022-10-23T12:48:58;25.60;71.40
1155;DHT22;566;48.414;9.118;2022-10-23T12:51:27;25.10;69.60
1155;DHT22;566;48.414;9.118;2022-10-23T12:53:53;25.10;70.60
1155;DHT22;566;48.414;9.118;2022-10-23T12:56:19;25.10;69.00
1155;DHT22;566;48.414;9.118;2022-10-23T12:58:49;25.00;70.20
1155;DHT22;566;48.414;9.118;2022-10-23T13:01:28;24.80;72.40
1155;DHT22;566;48.414;9.118;2022-10-23T13:06:35;24.20;75.40
1155;DHT22;566;48.414;9.118;2022-10-23T13:09:02;24.40;66.70
1155;DHT22;566;48.414;9.118;2022-10-23T13:11:29;24.50;73.00
1155;DHT22;566;48.414;9.118;2022-10-23T13:13:55;24.80;72.00
1155;DHT22;566;48.414;9.118;2022-10-23T13:16:23;25.00;72.50
1155;DHT22;566;48.414;9.118;2022-10-23T13:18:50;25.20;69.10
1155;DHT22;566;48.414;9.118;2022-10-23T13:21:22;25.20;73.10
1155;DHT22;566;48.414;9.118;2022-10-23T13:23:49;25.60;71.30
1155;DHT22;566;48.414;9.118;2022-10-23T13:26:28;25.70;69.50
1155;DHT22;566;48.414;9.118;2022-10-23T13:28:55;25.50;69.00
1155;DHT22;566;48.414;9.118;2022-10-23T13:34:33;24.60;69.30
1155;DHT22;566;48.414;9.118;2022-10-23T13:36:58;24.20;69.30
1155;DHT22;566;48.414;9.118;2022-10-23T13:39:32;23.90;65.60
1155;DHT22;566;48.414;9.118;2022-10-23T13:42:09;23.70;68.20
1155;DHT22;566;48.414;9.118;2022-10-23T13:44:36;23.40;68.80
1155;DHT22;566;48.414;9.118;2022-10-23T13:47:05;23.30;67.00
1155;DHT22;566;48.414;9.118;2022-10-23T13:49:31;23.30;69.20
1155;DHT22;566;48.414;9.118;2022-10-23T13:51:56;23.10;67.70
1155;DHT22;566;48.414;9.118;2022-10-23T13:54:26;23.00;67.90
1155;DHT22;566;48.414;9.118;2022-10-23T13:56:53;22.80;67.90
1155;DHT22;566;48.414;9.118;2022-10-23T13:59:19;22.60;68.10
1155;DHT22;566;48.414;9.118;2022-10-23T14:01:47;22.50;68.50
1155;DHT22;566;48.414;9.118;2022-10-23T14:04:14;22.40;68.10
1155;DHT22;566;48.414;9.118;2022-10-23T14:06:40;22.30;69.00
1155;DHT22;566;48.414;9.118;2022-10-23T14:09:12;22.20;68.50
1155;DHT22;566;48.414;9.118;2022-10-23T14:11:37;22.00;69.10
1155;DHT22;566;48.414;9.118;2022-10-23T14:14:03;22.00;69.20
1155;DHT22;566;48.414;9.118;2022-10-23T14:16:29;21.90;68.60
1155;DHT22;566;48.414;9.118;2022-10-23T14:18:55;21.90;68.80
1155;DHT22;566;48.414;9.118;2022-10-23T14:21:21;21.90;69.40
1155;DHT22;566;48.414;9.118;2022-10-23T14:23:48;21.90;68.50
1155;DHT22;566;48.414;9.118;2022-10-23T14:26:16;21.90;69.20
1155;DHT22;566;48.414;9.118;2022-10-23T14:28:46;21.90;68.80
1155;DHT22;566;48.414;9.118;2022-10-23T14:31:15;21.90;68.00
1155;DHT22;566;48.414;9.118;2022-10-23T14:33:42;21.90;70.30
1155;DHT22;566;48.414;9.118;2022-10-23T14:36:08;21.90;71.30
1155;DHT22;566;48.414;9.118;2022-10-23T14:38:34;21.80;69.10
1155;DHT22;566;48.414;9.118;2022-10-23T14:41:00;21.80;68.80
1155;DHT22;566;48.414;9.118;2022-10-23T14:43:26;21.90;70.00
1155;DHT22;566;48.414;9.118;2022-10-23T14:45:51;22.00;70.40
1155;DHT22;566;48.414;9.118;2022-10-23T14:48:17;22.10;70.50
1155;DHT22;566;48.414;9.118;2022-10-23T14:50:46;22.20;67.40
1155;DHT22;566;48.414;9.118;2022-10-23T14:53:12;22.20;69.70
1155;DHT22;566;48.414;9.118;2022-10-23T14:55:38;22.40;64.80
1155;DHT22;566;48.414;9.118;2022-10-23T14:58:04;22.50;65.60
1155;DHT22;566;48.414;9.118;2022-10-23T15:00:30;22.50;66.70
1155;DHT22;566;48.414;9.118;2022-10-23T15:02:56;22.50;68.70
1155;DHT22;566;48.414;9.118;2022-10-23T15:05:21;22.50;69.50
1155;DHT22;566;48.414;9.118;2022-10-23T15:07:47;22.40;68.00
1155;DHT22;566;48.414;9.118;2022-10-23T15:10:13;22.20;67.00
1155;DHT22;566;48.414;9.118;2022-10-23T15:12:39;22.20;67.00
1155;DHT22;566;48.414;9.118;2022-10-23T15:15:06;22.20;66.60
1155;DHT22;566;48.414;9.118;2022-10-23T15:17:32;22.10;67.30
1155;DHT22;566;48.414;9.118;2022-10-23T15:19:59;22.00;68.20
1155;DHT22;566;48.414;9.118;2022-10-23T15:22:25;21.90;69.10
1155;DHT22;566;48.414;9.118;2022-10-23T15:24:51;21.90;68.00
1155;DHT22;566;48.414;9.118;2022-10-23T15:27:17;22.00;69.00
1155;DHT22;566;48.414;9.118;2022-10-23T15:29:43;22.10;67.70
1155;DHT22;566;48.414;9.118;2022-10-23T15:32:10;21.90;70.20
1155;DHT22;566;48.414;9.118;2022-10-23T15:34:35;21.80;68.90
1155;DHT22;566;48.414;9.118;2022-10-23T15:37:02;21.90;67.40
1155;DHT22;566;48.414;9.118;2022-10-23T15:39:30;21.90;67.30
1155;DHT22;566;48.414;9.118;2022-10-23T15:42:01;21.90;67.90
1155;DHT22;566;48.414;9.118;2022-10-23T15:44:29;21.90;67.30
1155;DHT22;566;48.414;9.118;2022-10-23T15:46:55;21.90;68.00
1155;DHT22;566;48.414;9.118;2022-10-23T15:49:25;21.90;67.70
1155;DHT22;566;48.414;9.118;2022-10-23T15:51:51;21.90;68.10
1155;DHT22;566;48.414;9.118;2022-10-23T15:54:18;21.70;67.90
1155;DHT22;566;48.414;9.118;2022-10-23T15:56:46;21.70;67.30
1155;DHT22;566;48.414;9.118;2022-10-23T15:59:13;21.70;67.50
1155;DHT22;566;48.414;9.118;2022-10-23T16:01:39;21.40;71.40
1155;DHT22;566;48.414;9.118;2022-10-23T16:04:05;21.20;70.50
1155;DHT22;566;48.414;9.118;2022-10-23T16:06:30;21.20;69.00
1155;DHT22;566;48.414;9.118;2022-10-23T16:08:56;21.40;68.00
1155;DHT22;566;48.414;9.118;2022-10-23T16:11:25;21.40;68.60
1155;DHT22;566;48.414;9.118;2022-10-23T16:13:54;21.40;68.40
1155;DHT22;566;48.414;9.118;2022-10-23T16:16:20;21.50;68.00
1155;DHT22;566;48.414;9.118;2022-10-23T16:18:48;21.60;67.60
1155;DHT22;566;48.414;9.118;2022-10-23T16:21:24;21.60;67.30
1155;DHT22;566;48.414;9.118;2022-10-23T16:23:52;21.60;67.20
1155;DHT22;566;48.414;9.118;2022-10-23T16:26:18;21.60;67.10
1155;DHT22;566;48.414;9.118;2022-10-23T16:28:44;21.60;67.40
1155;DHT22;566;48.414;9.118;2022-10-23T16:31:13;21.50;68.20
1155;DHT22;566;48.414;9.118;2022-10-23T16:33:43;21.40;67.80
1155;DHT22;566;48.414;9.118;2022-10-23T16:36:09;21.50;68.00
1155;DHT22;566;48.414;9.118;2022-10-23T16:38:36;21.50;68.50
1155;DHT22;566;48.414;9.118;2022-10-23T16:41:02;21.40;69.50
1155;DHT22;566;48.414;9.118;2022-10-23T16:43:28;21.20;70.40
1155;DHT22;566;48.414;9.118;2022-10-23T16:48:30;20.80;71.90
1155;DHT22;566;48.414;9.118;2022-10-23T16:50:56;20.70;72.60
1155;DHT22;566;48.414;9.118;2022-10-23T16:53:22;20.60;72.80
1155;DHT22;566;48.414;9.118;2022-10-23T16:55:49;20.50;73.50
1155;DHT22;566;48.414;9.118;2022-10-23T16:58:14;20.50;73.70
1155;DHT22;566;48.414;9.118;2022-10-23T17:00:40;20.40;73.90
1155;DHT22;566;48.414;9.118;2022-10-23T17:03:05;20.30;74.70
1155;DHT22;566;48.414;9.118;2022-10-23T17:05:33;20.20;74.60
1155;DHT22;566;48.414;9.118;2022-10-23T17:07:59;20.20;74.50
1155;DHT22;566;48.414;9.118;2022-10-23T17:10:25;20.30;73.50
1155;DHT22;566;48.414;9.118;2022-10-23T17:12:50;20.40;72.40
1155;DHT22;566;48.414;9.118;2022-10-23T17:15:17;20.50;72.30
1155;DHT22;566;48.414;9.118;2022-10-23T17:17:42;20.50;72.80
1155;DHT22;566;48.414;9.118;2022-10-23T17:20:08;20.50;72.40
1155;DHT22;566;48.414;9.118;2022-10-23T17:22:35;20.50;71.80
1155;DHT22;566;48.414;9.118;2022-10-23T17:25:04;20.60;72.30
1155;DHT22;566;48.414;9.118;2022-10-23T17:27:29;20.60;72.10
1155;DHT22;566;48.414;9.118;2022-10-23T17:29:55;20.50;72.70
1155;DHT22;566;48.414;9.118;2022-10-23T17:32:21;20.40;72.50
1155;DHT22;566;48.414;9.118;2022-10-23T17:34:46;20.40;72.80
1155;DHT22;566;48.414;9.118;2022-10-23T17:37:12;20.40;72.60
1155;DHT22;566;48.414;9.118;2022-10-23T17:39:39;20.40;72.80
1155;DHT22;566;48.414;9.118;2022-10-23T17:42:05;20.40;72.90
1155;DHT22;566;48.414;9.118;2022-10-23T17:44:31;20.30;74.00
1155;DHT22;566;48.414;9.118;2022-10-23T17:46:56;20.20;73.90
1155;DHT22;566;48.414;9.118;2022-10-23T17:49:23;20.20;73.70
1155;DHT22;566;48.414;9.118;2022-10-23T17:51:54;20.30;73.20
1155;DHT22;566;48.414;9.118;2022-10-23T17:54:20;20.30;73.40
1155;DHT22;566;48.414;9.118;2022-10-23T17:56:46;20.30;73.40
1155;DHT22;566;48.414;9.118;2022-10-23T17:59:13;20.10;75.60
1155;DHT22;566;48.414;9.118;2022-10-23T18:01:40;19.80;77.30
1155;DHT22;566;48.414;9.118;2022-10-23T18:04:08;19.60;76.60
1155;DHT22;566;48.414;9.118;2022-10-23T18:06:37;19.50;78.40
1155;DHT22;566;48.414;9.118;2022-10-23T18:09:05;19.40;77.50
1155;DHT22;566;48.414;9.118;2022-10-23T18:11:34;19.30;77.30
1155;DHT22;566;48.414;9.118;2022-10-23T18:14:00;19.40;77.10
1155;DHT22;566;48.414;9.118;2022-10-23T18:16:26;19.60;75.40
1155;DHT22;566;48.414;9.118;2022-10-23T18:18:54;19.90;74.90
1155;DHT22;566;48.414;9.118;2022-10-23T18:21:22;19.90;74.60
1155;DHT22;566;48.414;9.118;2022-10-23T18:23:49;20.00;73.30
1155;DHT22;566;48.414;9.118;2022-10-23T18:26:19;20.20;72.80
1155;DHT22;566;48.414;9.118;2022-10-23T18:28:46;20.30;72.20
1155;DHT22;566;48.414;9.118;2022-10-23T18:31:14;20.50;71.80